Time;durP1;ratioP1;P1;durP2;ratioP2;P2;SDS_P1;SDS_P2;PMS_P1;PMS_P2;Temp;Humidity;BMP_temperature;BMP_pressure;BME280_temperature;BME280_humidity;BME280_pressure;Samples;Min_cycle;Max_cycle;Signal;HPM_P1;HPM_P2
2023/03/06 00:01:39;;;;;;;0.45;0.30;;;14.30;70.20;;;;;;3926500;30;20087;-65
2023/03/06 00:04:20;;;;;;;1.90;0.70;;;14.20;70.30;;;;;;3916345;30;20063;-65
2023/03/06 00:07:02;;;;;;;1.88;0.38;;;14.20;70.30;;;;;;3927521;30;20063;-64
2023/03/06 00:09:43;;;;;;;0.30;0.30;;;14.20;69.80;;;;;;3916298;30;20078;-64
2023/03/06 00:12:26;;;;;;;0.52;0.47;;;14.30;69.70;;;;;;3927463;30;20063;-64
2023/03/06 00:15:08;;;;;;;1.13;0.40;;;14.20;69.60;;;;;;3927129;30;20149;-63
2023/03/06 00:17:49;;;;;;;1.85;0.40;;;14.20;69.50;;;;;;3923259;30;20471;-64
2023/03/06 00:20:30;;;;;;;0.22;0.20;;;14.20;69.80;;;;;;3912968;30;20058;-62
2023/03/06 00:23:12;;;;;;;0.60;0.40;;;14.20;70.10;;;;;;3912812;30;20159;-62
2023/03/06 00:25:53;;;;;;;0.40;0.40;;;14.10;70.10;;;;;;3912627;30;20064;-62
2023/03/06 00:28:34;;;;;;;0.20;0.20;;;14.20;70.40;;;;;;3901572;30;20063;-62
2023/03/06 00:31:15;;;;;;;1.07;0.40;;;14.20;70.30;;;;;;3901847;30;20056;-62
2023/03/06 00:33:55;;;;;;;1.48;0.98;;;14.10;70.20;;;;;;3921679;30;20531;-62
2023/03/06 00:36:36;;;;;;;1.42;0.57;;;14.10;70.40;;;;;;3925672;30;20059;-62
2023/03/06 00:39:19;;;;;;;1.05;0.63;;;14.10;70.40;;;;;;3927206;30;20522;-62
2023/03/06 00:41:59;;;;;;;0.50;0.40;;;14.10;70.60;;;;;;3927422;30;20070;-62
2023/03/06 00:44:41;;;;;;;1.40;0.55;;;14.10;70.60;;;;;;3916412;30;20059;-62
2023/03/06 00:47:21;;;;;;;0.75;0.68;;;14.10;71.40;;;;;;3901754;30;20636;-62
2023/03/06 00:50:02;;;;;;;0.88;0.77;;;14.10;70.70;;;;;;3912925;30;20051;-64
2023/03/06 00:52:43;;;;;;;0.60;0.60;;;14.10;70.80;;;;;;3904773;30;20080;-66
2023/03/06 00:55:25;;;;;;;0.63;0.63;;;14.00;70.80;;;;;;3926959;30;20083;-66
2023/03/06 00:58:06;;;;;;;0.40;0.40;;;14.10;70.80;;;;;;3926038;30;20305;-65
2023/03/06 01:00:46;;;;;;;0.45;0.43;;;14.00;70.60;;;;;;3916161;30;20482;-64
2023/03/06 01:03:27;;;;;;;0.60;0.40;;;14.10;71.20;;;;;;3915648;30;20058;-64
2023/03/06 01:06:08;;;;;;;0.50;0.40;;;14.10;71.50;;;;;;3916047;30;20059;-65
2023/03/06 01:08:49;;;;;;;0.35;0.32;;;14.30;71.50;;;;;;3926952;30;20130;-66
2023/03/06 01:11:32;;;;;;;0.65;0.40;;;14.40;71.20;;;;;;3915929;30;20516;-65
2023/03/06 01:14:13;;;;;;;0.30;0.30;;;14.40;70.80;;;;;;3912134;30;20195;-64
2023/03/06 01:16:53;;;;;;;0.45;0.38;;;14.50;70.40;;;;;;3912359;30;20066;-64
2023/03/06 01:19:34;;;;;;;0.40;0.33;;;14.60;70.30;;;;;;3901329;30;20071;-65
2023/03/06 01:22:15;;;;;;;0.40;0.40;;;14.60;70.20;;;;;;3911900;30;20385;-64
2023/03/06 01:24:56;;;;;;;0.60;0.45;;;14.60;69.90;;;;;;3926081;30;20083;-64
2023/03/06 01:27:38;;;;;;;1.45;0.30;;;14.60;69.80;;;;;;3915603;30;20055;-65
2023/03/06 01:30:19;;;;;;;0.70;0.70;;;14.60;70.00;;;;;;3901266;30;20059;-64
2023/03/06 01:33:00;;;;;;;0.52;0.52;;;14.70;69.50;;;;;;3911183;30;20122;-65
2023/03/06 01:35:41;;;;;;;0.30;0.30;;;14.80;69.50;;;;;;3923696;30;20476;-65
2023/03/06 01:38:23;;;;;;;0.30;0.30;;;14.90;69.30;;;;;;3912271;30;20059;-64
2023/03/06 01:41:05;;;;;;;0.40;0.40;;;14.90;69.00;;;;;;3911816;30;20051;-64
2023/03/06 01:43:47;;;;;;;0.50;0.50;;;15.00;68.60;;;;;;3911991;30;20081;-64
2023/03/06 01:46:41;;;;;;;0.50;0.30;;;15.00;68.60;;;;;;3921589;30;20071;-64
2023/03/06 01:49:27;;;;;;;0.50;0.50;;;15.00;68.50;;;;;;3914877;30;20377;-64
2023/03/06 01:52:11;;;;;;;0.30;0.20;;;15.00;68.50;;;;;;3911879;30;20106;-64
2023/03/06 01:54:55;;;;;;;0.85;0.30;;;15.00;68.60;;;;;;3912053;30;20082;-65
2023/03/06 01:57:40;;;;;;;0.55;0.35;;;15.00;68.50;;;;;;3900513;30;20142;-65
2023/03/06 02:00:25;;;;;;;0.98;0.40;;;15.00;68.30;;;;;;3900859;30;20059;-62
2023/03/06 02:03:10;;;;;;;0.43;0.30;;;15.10;68.40;;;;;;3917125;30;20412;-63
2023/03/06 02:05:51;;;;;;;0.93;0.35;;;15.10;69.00;;;;;;3915053;30;20071;-61
2023/03/06 02:08:33;;;;;;;0.30;0.30;;;15.10;68.10;;;;;;3911914;30;20389;-61
2023/03/06 02:11:14;;;;;;;;;;;15.10;68.10;;;;;;3915151;30;20198;-62
2023/03/06 02:13:55;;;;;;;0.30;0.30;;;15.20;68.30;;;;;;3913983;30;19985;-61
2023/03/06 02:16:37;;;;;;;0.55;0.55;;;15.20;68.70;;;;;;3908477;30;20063;-62
2023/03/06 02:19:30;;;;;;;0.60;0.60;;;15.20;69.30;;;;;;3913807;30;20069;-61
2023/03/06 02:22:12;;;;;;;0.77;0.77;;;15.20;68.10;;;;;;3914153;30;20083;-62
2023/03/06 02:24:58;;;;;;;1.10;1.00;;;15.20;68.20;;;;;;3903669;30;20072;-64
2023/03/06 02:27:41;;;;;;;2.75;1.00;;;15.20;67.90;;;;;;3903600;30;20059;-64
2023/03/06 02:30:23;;;;;;;1.05;0.98;;;15.30;66.80;;;;;;3914483;30;20124;-64
2023/03/06 02:33:05;;;;;;;0.90;0.90;;;15.40;66.70;;;;;;3903596;30;20476;-64
2023/03/06 02:35:50;;;;;;;0.88;0.88;;;15.40;66.40;;;;;;3925597;30;20063;-66
2023/03/06 02:38:35;;;;;;;1.05;1.02;;;15.40;65.50;;;;;;3918015;30;20531;-64
2023/03/06 02:41:15;;;;;;;1.33;1.20;;;15.50;65.40;;;;;;3918062;30;20138;-64
2023/03/06 02:43:59;;;;;;;0.80;0.80;;;15.50;65.30;;;;;;3917974;30;20071;-64
2023/03/06 02:46:41;;;;;;;1.20;1.10;;;15.50;65.40;;;;;;3918054;30;20073;-65
2023/03/06 02:49:22;;;;;;;1.00;0.93;;;15.50;65.50;;;;;;3918289;30;20718;-65
2023/03/06 02:52:06;;;;;;;1.05;1.05;;;15.40;65.70;;;;;;3916085;30;20219;-65
2023/03/06 02:54:47;;;;;;;1.00;1.00;;;15.40;65.90;;;;;;3923911;30;20067;-65
2023/03/06 02:57:28;;;;;;;1.38;1.10;;;15.40;66.00;;;;;;3928521;30;20097;-62
2023/03/06 03:00:13;;;;;;;1.45;1.00;;;15.30;66.10;;;;;;3902997;30;20582;-62
2023/03/06 03:02:55;;;;;;;1.15;1.05;;;15.30;66.30;;;;;;3903330;30;20060;-65
2023/03/06 03:05:36;;;;;;;1.30;1.30;;;15.30;66.60;;;;;;3914039;30;20138;-65
2023/03/06 03:08:24;;;;;;;1.60;1.50;;;15.30;66.60;;;;;;3913238;30;20186;-64
2023/03/06 03:11:09;;;;;;;1.67;1.13;;;15.40;66.60;;;;;;3914195;30;20209;-65
2023/03/06 03:13:53;;;;;;;1.45;1.27;;;15.40;66.40;;;;;;3917360;30;20067;-65
2023/03/06 03:16:38;;;;;;;1.00;1.00;;;15.50;66.30;;;;;;3917046;30;20220;-62
2023/03/06 03:19:18;;;;;;;1.08;0.98;;;15.50;66.00;;;;;;3927570;30;20075;-63
2023/03/06 03:21:59;;;;;;;0.75;0.75;;;15.50;66.00;;;;;;3927461;30;20159;-62
2023/03/06 03:24:41;;;;;;;1.30;1.17;;;15.50;66.00;;;;;;3917049;30;20087;-62
2023/03/06 03:27:22;;;;;;;1.00;1.00;;;15.50;66.00;;;;;;3916697;30;20067;-62
2023/03/06 03:30:04;;;;;;;0.60;0.60;;;15.50;66.00;;;;;;3908465;30;20112;-62
2023/03/06 03:32:46;;;;;;;1.08;0.77;;;15.50;66.00;;;;;;3902658;30;20059;-62
2023/03/06 03:35:27;;;;;;;1.48;0.73;;;15.50;67.00;;;;;;3902918;30;20066;-62
2023/03/06 03:38:09;;;;;;;0.60;0.60;;;15.50;66.10;;;;;;3917092;30;20078;-65
2023/03/06 03:40:51;;;;;;;0.30;0.30;;;15.50;66.10;;;;;;3903782;30;20598;-65
2023/03/06 03:43:31;;;;;;;0.55;0.30;;;15.40;66.40;;;;;;3902375;30;20067;-62
2023/03/06 03:46:13;;;;;;;0.50;0.50;;;15.40;66.20;;;;;;3910477;30;20224;-65
2023/03/06 03:48:57;;;;;;;1.02;0.40;;;15.40;67.10;;;;;;3914143;30;20152;-65
2023/03/06 03:51:39;;;;;;;1.33;0.77;;;15.50;66.20;;;;;;3902366;30;20071;-65
2023/03/06 03:54:20;;;;;;;0.30;0.30;;;15.60;66.00;;;;;;3902377;30;20190;-65
2023/03/06 03:57:02;;;;;;;1.23;0.40;;;15.60;65.70;;;;;;3912886;30;20071;-65
2023/03/06 03:59:47;;;;;;;0.90;0.38;;;15.70;65.80;;;;;;3901749;30;20064;-65
2023/03/06 04:02:51;;;;;;;1.48;0.45;;;15.70;65.60;;;;;;3907151;30;20071;-65
2023/03/06 04:05:42;;;;;;;0.32;0.32;;;15.70;65.30;;;;;;3915303;30;20063;-62
2023/03/06 04:08:27;;;;;;;0.40;0.40;;;15.80;65.10;;;;;;3911892;30;20079;-62
2023/03/06 04:11:08;;;;;;;0.40;0.40;;;15.80;65.00;;;;;;3901814;30;20052;-62
2023/03/06 04:13:49;;;;;;;0.30;0.30;;;15.80;65.00;;;;;;3904353;30;20175;-62
2023/03/06 04:16:31;;;;;;;;;;;15.80;65.00;;;;;;3917025;30;21713;-62
2023/03/06 04:19:12;;;;;;;0.55;0.30;;;15.80;65.10;;;;;;3916102;30;19981;-65
2023/03/06 04:21:54;;;;;;;0.32;0.32;;;15.80;65.20;;;;;;3916359;30;20393;-65
2023/03/06 04:24:36;;;;;;;0.93;0.38;;;15.80;65.20;;;;;;3914662;30;20063;-65
2023/03/06 04:27:16;;;;;;;0.93;0.45;;;15.80;65.10;;;;;;3927119;30;20412;-65
2023/03/06 04:29:57;;;;;;;0.30;0.30;;;15.80;64.90;;;;;;3916550;30;20077;-65
2023/03/06 04:32:38;;;;;;;1.17;0.35;;;15.90;64.80;;;;;;3916082;30;20087;-67
2023/03/06 04:35:19;;;;;;;0.47;0.47;;;15.90;64.70;;;;;;3927299;30;20059;-66
2023/03/06 04:38:11;;;;;;;0.32;0.32;;;15.80;64.60;;;;;;3915981;30;20789;-65
2023/03/06 04:40:52;;;;;;;0.30;0.30;;;15.80;64.70;;;;;;3915997;30;20145;-64
2023/03/06 04:43:32;;;;;;;0.60;0.40;;;15.80;64.90;;;;;;3927178;30;20056;-65
2023/03/06 04:46:13;;;;;;;1.70;0.67;;;15.80;65.00;;;;;;3926632;30;20294;-66
2023/03/06 04:48:54;;;;;;;0.85;0.60;;;15.80;64.80;;;;;;3916247;30;20047;-66
2023/03/06 04:51:35;;;;;;;0.55;0.55;;;15.90;64.60;;;;;;3927277;30;20137;-66
2023/03/06 04:54:18;;;;;;;0.43;0.43;;;15.90;64.50;;;;;;3914392;30;20060;-66
2023/03/06 04:56:59;;;;;;;0.60;0.60;;;15.90;64.40;;;;;;3927221;30;20141;-66
2023/03/06 04:59:40;;;;;;;0.55;0.50;;;15.90;65.40;;;;;;3926759;30;20067;-65
2023/03/06 05:02:23;;;;;;;1.73;0.68;;;15.80;64.60;;;;;;3916029;30;20059;-65
2023/03/06 05:05:04;;;;;;;2.47;0.80;;;15.80;64.80;;;;;;3926570;30;20079;-65
2023/03/06 05:07:45;;;;;;;;;;;15.80;64.90;;;;;;3912586;30;20884;-65
2023/03/06 05:10:28;;;;;;;0.40;0.40;;;15.80;65.60;;;;;;3912066;30;20060;-65
2023/03/06 05:13:08;;;;;;;0.50;0.50;;;15.70;65.50;;;;;;3921494;30;20524;-65
2023/03/06 05:15:49;;;;;;;0.63;0.63;;;15.80;65.10;;;;;;3926107;30;20174;-65
2023/03/06 05:18:31;;;;;;;0.75;0.60;;;15.90;64.90;;;;;;3926316;30;20512;-64
2023/03/06 05:21:12;;;;;;;0.50;0.50;;;15.90;64.70;;;;;;3926163;30;20071;-65
2023/03/06 05:23:52;;;;;;;0.53;0.53;;;15.90;64.50;;;;;;3926623;30;20157;-66
2023/03/06 05:26:35;;;;;;;0.50;0.50;;;15.90;64.50;;;;;;3926377;30;20059;-65
2023/03/06 05:29:15;;;;;;;0.60;0.60;;;15.80;64.50;;;;;;3920353;30;20063;-65
2023/03/06 05:31:56;;;;;;;0.50;0.50;;;15.80;64.60;;;;;;3912047;30;20060;-66
2023/03/06 05:34:37;;;;;;;0.85;0.60;;;15.80;64.70;;;;;;3911367;30;20064;-64
2023/03/06 05:37:18;;;;;;;1.30;0.75;;;15.80;64.60;;;;;;3901022;30;20110;-65
2023/03/06 05:39:58;;;;;;;0.80;0.80;;;15.80;65.60;;;;;;3911807;30;20122;-65
2023/03/06 05:42:41;;;;;;;1.20;1.20;;;15.70;64.70;;;;;;3914822;30;20527;-65
2023/03/06 05:45:21;;;;;;;1.55;0.88;;;15.70;64.80;;;;;;3926309;30;20071;-66
2023/03/06 05:48:03;;;;;;;1.88;1.02;;;15.70;64.90;;;;;;3911806;30;20101;-64
2023/03/06 05:50:44;;;;;;;1.80;1.20;;;15.70;65.00;;;;;;3911708;30;20117;-64
2023/03/06 05:53:25;;;;;;;1.02;0.90;;;15.60;65.20;;;;;;3922977;30;20063;-64
2023/03/06 05:56:08;;;;;;;1.15;1.05;;;15.60;65.50;;;;;;3926095;30;20059;-65
2023/03/06 05:58:50;;;;;;;1.88;1.60;;;15.70;65.40;;;;;;3915111;30;20425;-65
2023/03/06 06:01:31;;;;;;;1.30;1.20;;;15.70;65.00;;;;;;3926003;30;20084;-65
2023/03/06 06:04:12;;;;;;;1.90;1.20;;;15.80;64.90;;;;;;3923890;30;20063;-65
2023/03/06 06:06:55;;;;;;;1.25;1.15;;;15.80;64.80;;;;;;3911560;30;20110;-65
2023/03/06 06:09:35;;;;;;;1.80;1.20;;;15.80;64.70;;;;;;3911103;30;20219;-65
2023/03/06 06:12:16;;;;;;;1.23;1.20;;;15.80;64.80;;;;;;3911517;30;20067;-62
2023/03/06 06:14:59;;;;;;;2.65;2.00;;;15.90;64.80;;;;;;3900561;30;20418;-62
2023/03/06 06:17:39;;;;;;;1.20;1.10;;;15.90;64.60;;;;;;3910894;30;20072;-63
2023/03/06 06:20:21;;;;;;;1.50;1.10;;;15.90;64.50;;;;;;3905176;30;20628;-62
2023/03/06 06:23:02;;;;;;;1.00;0.95;;;15.90;64.40;;;;;;3911066;30;20142;-62
2023/03/06 06:25:43;;;;;;;1.80;1.38;;;15.90;64.20;;;;;;3911371;30;20402;-63
2023/03/06 06:28:24;;;;;;;1.15;1.08;;;15.90;64.20;;;;;;3911470;30;20059;-61
2023/03/06 06:31:09;;;;;;;1.75;1.23;;;15.90;64.20;;;;;;3920994;30;20108;-60
2023/03/06 06:33:50;;;;;;;1.95;1.10;;;15.90;64.10;;;;;;3926102;30;20055;-65
2023/03/06 06:36:31;;;;;;;1.05;1.02;;;15.90;64.50;;;;;;3926062;30;20059;-65
2023/03/06 06:39:16;;;;;;;1.92;0.90;;;15.90;64.50;;;;;;3913046;30;20133;-65
2023/03/06 06:41:57;;;;;;;1.30;1.23;;;16.00;64.80;;;;;;3925391;30;20095;-64
2023/03/06 06:44:58;;;;;;;1.52;1.33;;;16.00;65.60;;;;;;3920535;30;20191;-64
2023/03/06 06:47:40;;;;;;;1.47;1.20;;;16.00;64.60;;;;;;3913893;30;20423;-63
2023/03/06 06:50:21;;;;;;;4.30;1.77;;;15.90;64.70;;;;;;3923329;30;20387;-64
2023/03/06 06:53:03;;;;;;;4.22;1.23;;;15.90;65.00;;;;;;3924741;30;20512;-63
2023/03/06 06:55:44;;;;;;;1.60;1.40;;;15.90;65.00;;;;;;3914384;30;20063;-61
2023/03/06 06:58:25;;;;;;;2.63;1.48;;;15.90;64.90;;;;;;3928399;30;20088;-62
2023/03/06 07:01:07;;;;;;;2.35;1.63;;;15.90;64.80;;;;;;3928119;30;20263;-62
2023/03/06 07:03:49;;;;;;;5.40;1.58;;;15.90;64.70;;;;;;3926671;30;20194;-62
2023/03/06 07:06:30;;;;;;;3.13;1.17;;;15.90;64.80;;;;;;3925193;30;20524;-61
2023/03/06 07:09:12;;;;;;;2.47;1.15;;;15.90;64.90;;;;;;3927717;30;20071;-61
2023/03/06 07:11:52;;;;;;;1.23;1.23;;;15.90;65.10;;;;;;3917051;30;20083;-62
2023/03/06 07:14:33;;;;;;;3.73;1.20;;;15.80;65.10;;;;;;3927825;30;20523;-62
2023/03/06 07:17:14;;;;;;;1.48;1.38;;;15.80;65.10;;;;;;3921560;30;20512;-62
2023/03/06 07:19:56;;;;;;;3.80;1.25;;;15.80;65.40;;;;;;3923310;30;20586;-62
2023/03/06 07:22:37;;;;;;;2.28;1.30;;;15.80;65.60;;;;;;3927855;30;20063;-62
2023/03/06 07:25:30;;;;;;;1.88;1.77;;;15.80;65.80;;;;;;3927710;30;20055;-63
2023/03/06 07:28:11;;;;;;;1.87;1.73;;;15.90;65.70;;;;;;3928015;30;20050;-62
2023/03/06 07:30:52;;;;;;;1.98;1.70;;;15.90;65.30;;;;;;3927292;30;20806;-62
2023/03/06 07:33:33;;;;;;;3.00;1.85;;;15.90;65.30;;;;;;3923254;30;20058;-63
2023/03/06 07:36:15;;;;;;;2.05;1.80;;;15.90;65.10;;;;;;3939180;30;20070;-63
2023/03/06 07:38:56;;;;;;;3.17;1.70;;;15.90;65.20;;;;;;3940376;30;20066;-63
2023/03/06 07:41:37;;;;;;;2.42;1.50;;;15.90;65.40;;;;;;3926249;30;20063;-62
2023/03/06 07:44:18;;;;;;;1.95;1.67;;;15.90;65.30;;;;;;3932053;30;20205;-63
2023/03/06 07:46:59;;;;;;;2.22;2.00;;;16.00;65.20;;;;;;3929074;30;20524;-63
2023/03/06 07:49:40;;;;;;;3.35;2.03;;;15.90;65.00;;;;;;3935559;30;20188;-63
2023/03/06 07:52:22;;;;;;;3.97;1.60;;;16.00;64.90;;;;;;3934654;30;20062;-63
2023/03/06 07:55:04;;;;;;;2.05;1.60;;;16.00;65.00;;;;;;3930497;30;20060;-63
2023/03/06 07:57:45;;;;;;;2.03;1.70;;;16.00;64.90;;;;;;3933877;30;20092;-63
2023/03/06 08:00:26;;;;;;;3.95;2.15;;;16.10;64.60;;;;;;3931267;30;20058;-63
2023/03/06 08:03:09;;;;;;;3.22;1.70;;;16.10;64.30;;;;;;3932264;30;20105;-63
2023/03/06 08:05:50;;;;;;;4.07;1.50;;;16.10;64.20;;;;;;3929635;30;20063;-62
2023/03/06 08:08:33;;;;;;;1.70;1.60;;;16.10;64.10;;;;;;3927611;30;20059;-62
2023/03/06 08:11:16;;;;;;;3.15;1.67;;;16.10;64.10;;;;;;3933699;30;20510;-63
2023/03/06 08:13:57;;;;;;;1.50;1.40;;;16.00;64.30;;;;;;3938942;30;20643;-63
2023/03/06 08:16:38;;;;;;;1.70;1.50;;;16.00;64.50;;;;;;3934397;30;20070;-63
2023/03/06 08:19:19;;;;;;;2.45;1.58;;;16.00;64.90;;;;;;3931101;30;20067;-63
2023/03/06 08:22:00;;;;;;;4.93;1.25;;;16.00;64.90;;;;;;3927459;30;20507;-63
2023/03/06 08:24:43;;;;;;;1.98;1.20;;;16.10;64.80;;;;;;3925152;30;20070;-62
2023/03/06 08:27:23;;;;;;;2.47;1.13;;;16.10;64.50;;;;;;3935703;30;20525;-63
2023/03/06 08:30:05;;;;;;;;;;;16.20;64.40;;;;;;3926297;30;20282;-63
2023/03/06 08:32:46;;;;;;;2.13;0.73;;;16.20;64.30;;;;;;3926338;30;19937;-62
2023/03/06 08:35:27;;;;;;;1.08;1.08;;;16.20;64.30;;;;;;3927932;30;20297;-63
2023/03/06 08:38:08;;;;;;;1.83;0.93;;;16.10;64.40;;;;;;3919113;30;20063;-63
2023/03/06 08:40:50;;;;;;;0.75;0.75;;;16.10;64.50;;;;;;3931160;30;20125;-63
2023/03/06 08:43:32;;;;;;;1.00;1.00;;;16.00;64.60;;;;;;3933610;30;20615;-63
2023/03/06 08:46:14;;;;;;;1.00;0.88;;;16.00;64.80;;;;;;3929228;30;20094;-63
2023/03/06 08:48:56;;;;;;;1.10;1.00;;;15.90;65.00;;;;;;3920081;30;20172;-63
2023/03/06 08:51:37;;;;;;;1.10;0.90;;;15.90;65.10;;;;;;3926668;30;20051;-64
2023/03/06 08:54:18;;;;;;;1.00;0.63;;;15.80;65.80;;;;;;3924704;30;20507;-64
2023/03/06 08:57:00;;;;;;;1.92;0.80;;;15.80;65.00;;;;;;3925770;30;20063;-64
2023/03/06 08:59:41;;;;;;;1.05;0.80;;;15.80;65.10;;;;;;3930980;30;20066;-64
2023/03/06 09:02:22;;;;;;;1.95;0.85;;;15.70;65.10;;;;;;3929287;30;20574;-65
2023/03/06 09:05:04;;;;;;;2.97;0.90;;;15.70;65.50;;;;;;3933045;30;20082;-64
2023/03/06 09:07:45;;;;;;;1.85;0.85;;;15.60;65.50;;;;;;3923212;30;20100;-64
2023/03/06 09:10:27;;;;;;;1.10;1.00;;;15.60;65.60;;;;;;3929505;30;20063;-64
2023/03/06 09:13:10;;;;;;;;;;;15.50;65.80;;;;;;3930696;30;20067;-64
2023/03/06 09:15:50;;;;;;;2.13;0.77;;;15.50;66.20;;;;;;3924783;30;19956;-65
2023/03/06 09:18:31;;;;;;;3.47;0.80;;;15.40;66.50;;;;;;3931763;30;20077;-64
2023/03/06 09:21:13;;;;;;;0.90;0.60;;;15.30;66.60;;;;;;3930497;30;20062;-65
2023/03/06 09:23:53;;;;;;;1.50;0.73;;;15.30;66.70;;;;;;3929331;30;20424;-64
2023/03/06 09:26:34;;;;;;;0.82;0.80;;;15.30;66.60;;;;;;3932362;30;20054;-64
2023/03/06 09:29:27;;;;;;;;;;;15.40;66.50;;;;;;3931558;30;20404;-65
2023/03/06 09:32:09;;;;;;;3.95;1.10;;;15.40;66.60;;;;;;3918984;30;20112;-64
2023/03/06 09:34:51;;;;;;;3.35;0.75;;;15.40;66.70;;;;;;3928237;30;20403;-65
2023/03/06 09:37:32;;;;;;;2.15;0.80;;;15.30;67.50;;;;;;3932983;30;21135;-64
2023/03/06 09:40:23;;;;;;;2.17;1.02;;;15.30;66.70;;;;;;3924687;30;20461;-65
2023/03/06 09:43:03;;;;;;;4.22;1.13;;;15.30;67.50;;;;;;3934974;30;20063;-65
2023/03/06 09:45:46;;;;;;;0.80;0.80;;;15.30;66.90;;;;;;3928414;30;20063;-64
2023/03/06 09:48:36;;;;;;;1.95;0.65;;;15.30;66.90;;;;;;3930199;30;20508;-65
2023/03/06 09:51:19;;;;;;;1.30;0.73;;;15.30;66.90;;;;;;3917685;30;20087;-66
2023/03/06 09:54:08;;;;;;;1.48;1.05;;;15.20;67.00;;;;;;3926648;30;20067;-64
2023/03/06 09:56:50;;;;;;;4.82;0.80;;;15.20;67.00;;;;;;3927079;30;20341;-67
2023/03/06 09:59:32;;;;;;;1.55;0.77;;;15.20;67.20;;;;;;3928383;30;20065;-65
2023/03/06 10:02:19;;;;;;;2.90;0.75;;;15.20;67.00;;;;;;3929381;30;20726;-64
2023/03/06 10:05:05;;;;;;;2.22;1.08;;;15.10;66.90;;;;;;3932341;30;20071;-63
2023/03/06 10:07:50;;;;;;;1.98;1.20;;;15.10;67.20;;;;;;3929874;30;20094;-66
2023/03/06 10:10:40;;;;;;;1.85;0.90;;;15.10;67.30;;;;;;3929951;30;20087;-65
2023/03/06 10:13:28;;;;;;;3.65;0.73;;;15.10;67.00;;;;;;3928812;30;20751;-64
2023/03/06 10:16:23;;;;;;;0.85;0.65;;;15.20;67.10;;;;;;3931807;30;20387;-64
2023/03/06 10:19:13;;;;;;;2.03;0.60;;;15.20;66.20;;;;;;3924132;30;20132;-64
2023/03/06 10:21:58;;;;;;;0.90;0.60;;;15.20;66.50;;;;;;3938228;30;20090;-64
2023/03/06 10:24:49;;;;;;;1.42;0.30;;;15.20;66.80;;;;;;3934139;30;20063;-66
2023/03/06 10:27:39;;;;;;;1.50;0.70;;;15.20;66.60;;;;;;3931466;30;20087;-64
2023/03/06 10:30:27;;;;;;;1.23;0.50;;;15.20;66.70;;;;;;3914752;30;20062;-66
2023/03/06 10:33:18;;;;;;;1.67;0.75;;;15.20;66.50;;;;;;3931948;30;20133;-65
2023/03/06 10:36:00;;;;;;;8.52;1.30;;;15.20;67.50;;;;;;3927607;30;20188;-64
2023/03/06 10:38:42;;;;;;;3.95;0.70;;;15.20;66.70;;;;;;3926880;30;20610;-63
2023/03/06 10:41:26;;;;;;;1.65;0.40;;;15.20;66.20;;;;;;3927421;30;20055;-65
2023/03/06 10:44:24;;;;;;;0.68;0.68;;;15.10;66.20;;;;;;3936166;30;20175;-65
2023/03/06 10:47:30;;;;;;;1.77;0.50;;;15.10;65.30;;;;;;3926873;30;20157;-65
2023/03/06 10:50:23;;;;;;;1.45;0.40;;;15.10;65.60;;;;;;3933736;30;20281;-65
2023/03/06 10:53:15;;;;;;;2.67;0.40;;;15.10;66.20;;;;;;3928228;30;20056;-65
2023/03/06 10:55:59;;;;;;;0.68;0.40;;;15.00;65.90;;;;;;3916784;30;20117;-65
2023/03/06 10:58:40;;;;;;;0.22;0.22;;;15.00;64.30;;;;;;3936595;30;20086;-65
2023/03/06 11:01:22;;;;;;;0.55;0.28;;;15.00;64.20;;;;;;3926129;30;20512;-64
2023/03/06 11:04:22;;;;;;;1.63;0.50;;;14.90;64.70;;;;;;3926114;30;20510;-64
2023/03/06 11:07:13;;;;;;;1.90;0.70;;;15.00;64.00;;;;;;3934908;30;20492;-65
2023/03/06 11:10:15;;;;;;;3.08;0.90;;;15.00;65.60;;;;;;3926188;30;20140;-65
2023/03/06 11:12:58;;;;;;;1.67;0.63;;;15.10;66.40;;;;;;3934756;30;20112;-65
2023/03/06 11:15:39;;;;;;;1.55;0.40;;;15.20;67.00;;;;;;3925906;30;20067;-65
2023/03/06 11:18:29;;;;;;;2.65;0.75;;;15.30;66.80;;;;;;3939020;30;20121;-64
2023/03/06 11:21:26;;;;;;;0.98;0.60;;;15.40;66.50;;;;;;3925457;30;20464;-65
2023/03/06 11:24:17;;;;;;;3.00;0.65;;;15.50;66.10;;;;;;3912123;30;20064;-64
2023/03/06 11:27:04;;;;;;;2.58;0.60;;;15.50;66.20;;;;;;3911155;30;20157;-65
2023/03/06 11:29:48;;;;;;;1.63;0.40;;;15.60;66.90;;;;;;3916900;30;20402;-65
2023/03/06 11:32:33;;;;;;;4.28;0.82;;;15.60;66.20;;;;;;3908036;30;20194;-65
2023/03/06 11:35:21;;;;;;;4.50;1.05;;;15.50;66.20;;;;;;3913685;30;20077;-64
2023/03/06 11:38:11;;;;;;;1.70;0.70;;;15.60;66.40;;;;;;3908383;30;20098;-64
2023/03/06 11:40:54;;;;;;;2.70;0.80;;;15.60;66.20;;;;;;3916577;30;20106;-64
2023/03/06 11:43:46;;;;;;;0.90;0.73;;;15.50;66.50;;;;;;3906132;30;20134;-64
2023/03/06 11:46:32;;;;;;;4.95;0.80;;;15.50;66.20;;;;;;3920163;30;20459;-64
2023/03/06 11:49:19;;;;;;;3.05;1.05;;;15.50;66.50;;;;;;3919909;30;20135;-64
2023/03/06 11:52:06;;;;;;;1.95;0.77;;;15.40;66.70;;;;;;3914838;30;20075;-65
2023/03/06 11:54:51;;;;;;;3.10;1.02;;;15.40;66.80;;;;;;3910739;30;20473;-64
2023/03/06 11:57:42;;;;;;;1.05;0.95;;;15.40;67.00;;;;;;3906845;30;20175;-64
2023/03/06 12:00:37;;;;;;;4.43;1.25;;;15.30;66.90;;;;;;3908307;30;20113;-65
2023/03/06 12:03:47;;;;;;;4.72;1.65;;;15.30;66.50;;;;;;3922524;30;20152;-65
2023/03/06 12:06:39;;;;;;;4.25;1.40;;;15.20;65.00;;;;;;3922148;30;20465;-65
2023/03/06 12:09:30;;;;;;;1.70;1.33;;;15.20;65.90;;;;;;3911848;30;20082;-64
2023/03/06 12:12:44;;;;;;;0.70;0.47;;;15.10;65.50;;;;;;3910536;30;20121;-65
2023/03/06 12:15:39;;;;;;;7.75;2.70;;;15.10;65.50;;;;;;3911188;30;20153;-66
2023/03/06 12:18:35;;;;;;;1.63;1.13;;;15.00;67.40;;;;;;3917410;30;20500;-65
2023/03/06 12:21:26;;;;;;;1.13;0.85;;;15.00;66.20;;;;;;3911826;30;20139;-65
2023/03/06 12:24:18;;;;;;;1.80;0.90;;;14.90;65.10;;;;;;3915771;30;20091;-66
2023/03/06 12:27:09;;;;;;;4.07;0.70;;;14.90;63.20;;;;;;3910815;30;20484;-65
2023/03/06 12:30:09;;;;;;;1.75;0.40;;;14.90;64.00;;;;;;3903287;30;20182;-65
2023/03/06 12:33:00;;;;;;;1.00;0.28;;;14.80;63.90;;;;;;3915527;30;20217;-65
2023/03/06 12:36:03;;;;;;;2.47;0.98;;;14.80;62.40;;;;;;3913306;30;20087;-65
2023/03/06 12:39:16;;;;;;;3.25;1.67;;;14.80;62.90;;;;;;3899449;30;20409;-65
2023/03/06 12:42:08;;;;;;;2.30;1.30;;;14.80;64.30;;;;;;3882701;30;20063;-65
2023/03/06 12:45:21;;;;;;;3.58;1.45;;;14.70;66.30;;;;;;3914148;30;20078;-65
2023/03/06 12:48:10;;;;;;;2.70;1.08;;;14.70;67.00;;;;;;3910990;30;20060;-65
2023/03/06 12:50:51;;;;;;;6.68;0.80;;;14.70;66.90;;;;;;3915451;30;20388;-65
2023/03/06 12:53:33;;;;;;;;;;;14.70;66.20;;;;;;3904139;30;20388;-65
2023/03/06 12:56:15;;;;;;;;;;;14.70;65.40;;;;;;3915692;30;20338;-66
2023/03/06 12:59:00;;;;;;;2.65;1.08;;;14.70;64.80;;;;;;3916546;30;20036;-67
2023/03/06 13:01:56;;;;;;;1.42;0.82;;;14.70;65.00;;;;;;3914721;30;20079;-67
2023/03/06 13:05:14;;;;;;;2.67;1.20;;;14.60;64.30;;;;;;3915365;30;20374;-66
2023/03/06 13:08:08;;;;;;;8.70;1.25;;;14.60;64.00;;;;;;3909937;30;21036;-65
2023/03/06 13:11:15;;;;;;;2.83;0.77;;;14.60;63.80;;;;;;3919514;30;20175;-65
2023/03/06 13:13:56;;;;;;;1.20;0.85;;;14.60;63.40;;;;;;3903672;30;20205;-66
2023/03/06 13:16:37;;;;;;;;;;;14.50;63.10;;;;;;3915427;30;20056;-66
2023/03/06 13:19:20;;;;;;;2.57;1.10;;;14.50;62.90;;;;;;3911163;30;19933;-66
2023/03/06 13:22:13;;;;;;;4.13;0.90;;;14.50;63.40;;;;;;3930878;30;20313;-66
2023/03/06 13:25:32;;;;;;;1.50;0.60;;;14.50;64.30;;;;;;3926761;30;20129;-66
2023/03/06 13:28:24;;;;;;;1.50;0.65;;;14.50;63.20;;;;;;3919531;30;20087;-65
2023/03/06 13:31:05;;;;;;;3.17;0.60;;;14.50;63.20;;;;;;3927254;30;20103;-65
2023/03/06 13:33:57;;;;;;;2.88;0.70;;;14.50;63.20;;;;;;3929514;30;20094;-64
2023/03/06 13:36:38;;;;;;;3.25;0.82;;;14.60;63.80;;;;;;3930261;30;20088;-63
2023/03/06 13:39:21;;;;;;;2.83;1.10;;;14.60;64.20;;;;;;3930004;30;20098;-63
2023/03/06 13:42:01;;;;;;;0.80;0.80;;;14.70;64.40;;;;;;3910901;30;20081;-64
2023/03/06 13:44:44;;;;;;;2.05;0.73;;;14.80;64.90;;;;;;3920195;30;20067;-64
2023/03/06 13:47:38;;;;;;;1.27;0.68;;;14.80;64.40;;;;;;3930081;30;20688;-63
2023/03/06 13:50:42;;;;;;;1.63;0.73;;;14.90;64.00;;;;;;3917687;30;20063;-65
2023/03/06 13:53:47;;;;;;;3.47;1.00;;;14.90;64.70;;;;;;3913119;30;20198;-66
2023/03/06 13:56:57;;;;;;;1.55;0.75;;;15.00;64.80;;;;;;3916036;30;20191;-66
2023/03/06 13:59:56;;;;;;;4.25;1.00;;;15.10;64.70;;;;;;3920707;30;20051;-65
2023/03/06 14:03:34;;;;;;;2.38;0.88;;;15.20;65.20;;;;;;3937893;30;20131;-65
2023/03/06 14:06:42;;;;;;;1.67;0.82;;;15.30;64.80;;;;;;3931380;30;20057;-65
2023/03/06 14:09:27;;;;;;;3.22;0.93;;;15.50;64.10;;;;;;3927258;30;20051;-65
2023/03/06 14:12:18;;;;;;;2.50;1.00;;;15.50;64.00;;;;;;3912521;30;20085;-65
2023/03/06 14:15:03;;;;;;;2.75;1.05;;;15.60;64.10;;;;;;3934819;30;20109;-63
2023/03/06 14:17:54;;;;;;;1.83;0.88;;;15.60;64.20;;;;;;3927719;30;20059;-65
2023/03/06 14:20:43;;;;;;;3.30;1.02;;;15.60;64.00;;;;;;3934999;30;20069;-66